sensor_id;sensor_type;location;lat;lon;timestamp;P1;durP1;ratioP1;P2;durP2;ratioP2
57593;SDS011;43423;46.510;6.686;2022-10-16T00:01:08;3.85;;;1.45;;
57593;SDS011;43423;46.510;6.686;2022-10-16T00:03:36;1.92;;;1.45;;
57593;SDS011;43423;46.510;6.686;2022-10-16T00:06:03;2.92;;;1.40;;
57593;SDS011;43423;46.510;6.686;2022-10-16T00:08:30;18.17;;;2.17;;
57593;SDS011;43423;46.510;6.686;2022-10-16T00:11:03;2.53;;;1.30;;
57593;SDS011;43423;46.510;6.686;2022-10-16T00:13:40;2.45;;;1.40;;
57593;SDS011;43423;46.510;6.686;2022-10-16T00:16:07;3.92;;;1.60;;
57593;SDS011;43423;46.510;6.686;2022-10-16T00:18:34;3.17;;;1.30;;
57593;SDS011;43423;46.510;6.686;2022-10-16T00:21:04;2.75;;;2.00;;
57593;SDS011;43423;46.510;6.686;2022-10-16T00:23:30;1.25;;;1.10;;
57593;SDS011;43423;46.510;6.686;2022-10-16T00:25:57;1.55;;;1.20;;
57593;SDS011;43423;46.510;6.686;2022-10-16T00:28:24;1.35;;;1.20;;
57593;SDS011;43423;46.510;6.686;2022-10-16T00:30:50;3.78;;;1.25;;
57593;SDS011;43423;46.510;6.686;2022-10-16T00:33:15;2.28;;;1.30;;
57593;SDS011;43423;46.510;6.686;2022-10-16T00:35:41;2.58;;;1.13;;
57593;SDS011;43423;46.510;6.686;2022-10-16T00:38:07;1.40;;;1.00;;
57593;SDS011;43423;46.510;6.686;2022-10-16T00:40:32;3.22;;;1.35;;
57593;SDS011;43423;46.510;6.686;2022-10-16T00:42:58;2.30;;;1.33;;
57593;SDS011;43423;46.510;6.686;2022-10-16T00:45:23;2.00;;;1.05;;
57593;SDS011;43423;46.510;6.686;2022-10-16T00:47:49;3.75;;;1.42;;
57593;SDS011;43423;46.510;6.686;2022-10-16T00:52:53;1.65;;;1.20;;
57593;SDS011;43423;46.510;6.686;2022-10-16T00:55:21;5.60;;;1.40;;
57593;SDS011;43423;46.510;6.686;2022-10-16T00:57:48;2.03;;;1.30;;
57593;SDS011;43423;46.510;6.686;2022-10-16T01:00:19;3.83;;;1.20;;
57593;SDS011;43423;46.510;6.686;2022-10-16T01:02:54;4.00;;;1.10;;
57593;SDS011;43423;46.510;6.686;2022-10-16T01:05:22;2.72;;;1.20;;
57593;SDS011;43423;46.510;6.686;2022-10-16T01:11:16;1.20;;;1.08;;
57593;SDS011;43423;46.510;6.686;2022-10-16T01:13:48;3.47;;;1.30;;
57593;SDS011;43423;46.510;6.686;2022-10-16T01:16:35;2.63;;;1.42;;
57593;SDS011;43423;46.510;6.686;2022-10-16T01:19:14;1.77;;;1.23;;
57593;SDS011;43423;46.510;6.686;2022-10-16T01:21:46;4.90;;;1.17;;
57593;SDS011;43423;46.510;6.686;2022-10-16T01:24:26;3.17;;;1.10;;
57593;SDS011;43423;46.510;6.686;2022-10-16T01:30:07;1.75;;;1.08;;
57593;SDS011;43423;46.510;6.686;2022-10-16T01:32:45;1.23;;;0.93;;
57593;SDS011;43423;46.510;6.686;2022-10-16T01:35:22;2.75;;;1.15;;
57593;SDS011;43423;46.510;6.686;2022-10-16T01:40:21;2.58;;;1.20;;
57593;SDS011;43423;46.510;6.686;2022-10-16T01:43:01;4.90;;;1.10;;
57593;SDS011;43423;46.510;6.686;2022-10-16T01:45:30;2.00;;;1.00;;
57593;SDS011;43423;46.510;6.686;2022-10-16T01:47:58;3.17;;;1.17;;
57593;SDS011;43423;46.510;6.686;2022-10-16T01:50:29;1.73;;;1.35;;
57593;SDS011;43423;46.510;6.686;2022-10-16T01:52:59;3.38;;;1.20;;
57593;SDS011;43423;46.510;6.686;2022-10-16T01:55:31;2.05;;;1.02;;
57593;SDS011;43423;46.510;6.686;2022-10-16T01:58:01;1.48;;;1.13;;
57593;SDS011;43423;46.510;6.686;2022-10-16T02:00:30;5.32;;;1.05;;
57593;SDS011;43423;46.510;6.686;2022-10-16T02:02:56;4.05;;;1.30;;
57593;SDS011;43423;46.510;6.686;2022-10-16T02:05:40;5.07;;;1.40;;
57593;SDS011;43423;46.510;6.686;2022-10-16T02:08:09;3.20;;;1.23;;
57593;SDS011;43423;46.510;6.686;2022-10-16T02:10:35;1.40;;;1.30;;
57593;SDS011;43423;46.510;6.686;2022-10-16T02:13:12;1.17;;;1.08;;
57593;SDS011;43423;46.510;6.686;2022-10-16T02:15:42;2.90;;;1.02;;
57593;SDS011;43423;46.510;6.686;2022-10-16T02:18:08;2.72;;;1.05;;
57593;SDS011;43423;46.510;6.686;2022-10-16T02:20:49;1.40;;;1.00;;
57593;SDS011;43423;46.510;6.686;2022-10-16T02:23:21;1.50;;;1.02;;
57593;SDS011;43423;46.510;6.686;2022-10-16T02:26:08;1.27;;;1.02;;
57593;SDS011;43423;46.510;6.686;2022-10-16T02:28:40;2.00;;;0.95;;
57593;SDS011;43423;46.510;6.686;2022-10-16T02:31:11;1.10;;;1.00;;
57593;SDS011;43423;46.510;6.686;2022-10-16T02:33:41;1.15;;;0.82;;
57593;SDS011;43423;46.510;6.686;2022-10-16T02:36:09;5.28;;;0.88;;
57593;SDS011;43423;46.510;6.686;2022-10-16T02:38:35;2.13;;;0.88;;
57593;SDS011;43423;46.510;6.686;2022-10-16T02:41:02;2.25;;;1.10;;
57593;SDS011;43423;46.510;6.686;2022-10-16T02:43:28;2.08;;;0.90;;
57593;SDS011;43423;46.510;6.686;2022-10-16T02:45:54;6.03;;;1.13;;
57593;SDS011;43423;46.510;6.686;2022-10-16T02:48:20;4.15;;;1.23;;
57593;SDS011;43423;46.510;6.686;2022-10-16T02:50:45;7.15;;;1.13;;
57593;SDS011;43423;46.510;6.686;2022-10-16T02:53:11;1.10;;;1.00;;
57593;SDS011;43423;46.510;6.686;2022-10-16T02:55:36;2.30;;;1.13;;
57593;SDS011;43423;46.510;6.686;2022-10-16T02:58:02;2.60;;;0.80;;
57593;SDS011;43423;46.510;6.686;2022-10-16T03:00:28;2.50;;;1.50;;
57593;SDS011;43423;46.510;6.686;2022-10-16T03:02:54;0.98;;;0.85;;
57593;SDS011;43423;46.510;6.686;2022-10-16T03:05:19;2.08;;;0.73;;
57593;SDS011;43423;46.510;6.686;2022-10-16T03:07:45;1.85;;;1.27;;
57593;SDS011;43423;46.510;6.686;2022-10-16T03:10:10;2.90;;;1.10;;
57593;SDS011;43423;46.510;6.686;2022-10-16T03:12:36;4.60;;;0.88;;
57593;SDS011;43423;46.510;6.686;2022-10-16T03:15:01;3.58;;;0.90;;
57593;SDS011;43423;46.510;6.686;2022-10-16T03:17:27;1.42;;;1.10;;
57593;SDS011;43423;46.510;6.686;2022-10-16T03:19:53;6.78;;;2.45;;
57593;SDS011;43423;46.510;6.686;2022-10-16T03:22:18;2.92;;;1.20;;
57593;SDS011;43423;46.510;6.686;2022-10-16T03:24:44;1.52;;;0.90;;
57593;SDS011;43423;46.510;6.686;2022-10-16T03:27:09;6.50;;;2.42;;
57593;SDS011;43423;46.510;6.686;2022-10-16T03:29:35;4.30;;;1.00;;
57593;SDS011;43423;46.510;6.686;2022-10-16T03:32:00;1.60;;;1.10;;
57593;SDS011;43423;46.510;6.686;2022-10-16T03:34:26;4.78;;;1.40;;
57593;SDS011;43423;46.510;6.686;2022-10-16T03:36:53;3.40;;;1.23;;
57593;SDS011;43423;46.510;6.686;2022-10-16T03:39:18;2.92;;;1.33;;
57593;SDS011;43423;46.510;6.686;2022-10-16T03:41:44;1.40;;;1.10;;
57593;SDS011;43423;46.510;6.686;2022-10-16T03:44:11;0.80;;;0.80;;
57593;SDS011;43423;46.510;6.686;2022-10-16T03:46:37;1.02;;;0.93;;
57593;SDS011;43423;46.510;6.686;2022-10-16T03:49:02;1.40;;;0.90;;
57593;SDS011;43423;46.510;6.686;2022-10-16T03:51:28;1.30;;;0.95;;
57593;SDS011;43423;46.510;6.686;2022-10-16T03:53:53;3.33;;;0.95;;
57593;SDS011;43423;46.510;6.686;2022-10-16T03:56:19;2.63;;;0.70;;
57593;SDS011;43423;46.510;6.686;2022-10-16T03:58:44;4.75;;;1.10;;
57593;SDS011;43423;46.510;6.686;2022-10-16T04:01:10;0.85;;;0.65;;
57593;SDS011;43423;46.510;6.686;2022-10-16T04:03:36;8.40;;;1.33;;
57593;SDS011;43423;46.510;6.686;2022-10-16T04:06:01;2.13;;;0.90;;
57593;SDS011;43423;46.510;6.686;2022-10-16T04:08:27;2.35;;;0.68;;
57593;SDS011;43423;46.510;6.686;2022-10-16T04:10:53;4.00;;;0.77;;
57593;SDS011;43423;46.510;6.686;2022-10-16T04:13:18;1.17;;;0.90;;
57593;SDS011;43423;46.510;6.686;2022-10-16T04:15:44;1.85;;;1.00;;
57593;SDS011;43423;46.510;6.686;2022-10-16T04:18:10;2.08;;;1.02;;
57593;SDS011;43423;46.510;6.686;2022-10-16T04:20:36;2.95;;;1.00;;
57593;SDS011;43423;46.510;6.686;2022-10-16T04:23:02;1.77;;;1.00;;
57593;SDS011;43423;46.510;6.686;2022-10-16T04:25:28;0.70;;;0.70;;
57593;SDS011;43423;46.510;6.686;2022-10-16T04:27:53;1.73;;;0.90;;
57593;SDS011;43423;46.510;6.686;2022-10-16T04:30:20;1.13;;;0.98;;
57593;SDS011;43423;46.510;6.686;2022-10-16T04:32:49;1.05;;;0.90;;
57593;SDS011;43423;46.510;6.686;2022-10-16T04:35:19;4.57;;;0.98;;
57593;SDS011;43423;46.510;6.686;2022-10-16T04:37:46;1.63;;;0.80;;
57593;SDS011;43423;46.510;6.686;2022-10-16T04:40:12;0.80;;;0.80;;
57593;SDS011;43423;46.510;6.686;2022-10-16T04:42:38;1.45;;;1.20;;
57593;SDS011;43423;46.510;6.686;2022-10-16T04:45:05;3.80;;;1.00;;
57593;SDS011;43423;46.510;6.686;2022-10-16T04:47:31;3.47;;;0.98;;
57593;SDS011;43423;46.510;6.686;2022-10-16T04:49:56;1.30;;;1.00;;
57593;SDS011;43423;46.510;6.686;2022-10-16T04:52:22;1.70;;;1.10;;
57593;SDS011;43423;46.510;6.686;2022-10-16T04:54:50;1.75;;;1.00;;
57593;SDS011;43423;46.510;6.686;2022-10-16T04:57:16;3.97;;;0.90;;
57593;SDS011;43423;46.510;6.686;2022-10-16T04:59:42;1.10;;;1.00;;
57593;SDS011;43423;46.510;6.686;2022-10-16T05:02:08;0.77;;;0.70;;
57593;SDS011;43423;46.510;6.686;2022-10-16T05:04:34;2.75;;;1.17;;
57593;SDS011;43423;46.510;6.686;2022-10-16T05:06:59;2.53;;;1.00;;
57593;SDS011;43423;46.510;6.686;2022-10-16T05:09:25;1.67;;;1.10;;
57593;SDS011;43423;46.510;6.686;2022-10-16T05:11:50;1.20;;;1.10;;
57593;SDS011;43423;46.510;6.686;2022-10-16T05:14:16;1.23;;;1.10;;
57593;SDS011;43423;46.510;6.686;2022-10-16T05:16:41;1.55;;;1.10;;
57593;SDS011;43423;46.510;6.686;2022-10-16T05:19:07;0.85;;;0.80;;
57593;SDS011;43423;46.510;6.686;2022-10-16T05:21:33;1.20;;;1.00;;
57593;SDS011;43423;46.510;6.686;2022-10-16T05:23:58;1.25;;;1.00;;
57593;SDS011;43423;46.510;6.686;2022-10-16T05:26:23;2.13;;;1.20;;
57593;SDS011;43423;46.510;6.686;2022-10-16T05:28:49;1.05;;;0.85;;
57593;SDS011;43423;46.510;6.686;2022-10-16T05:31:15;1.27;;;0.95;;
57593;SDS011;43423;46.510;6.686;2022-10-16T05:33:41;2.20;;;0.85;;
57593;SDS011;43423;46.510;6.686;2022-10-16T05:36:07;1.33;;;1.00;;
57593;SDS011;43423;46.510;6.686;2022-10-16T05:38:34;1.08;;;0.95;;
57593;SDS011;43423;46.510;6.686;2022-10-16T05:41:00;2.95;;;0.98;;
57593;SDS011;43423;46.510;6.686;2022-10-16T05:43:27;1.90;;;1.10;;
57593;SDS011;43423;46.510;6.686;2022-10-16T05:45:54;6.00;;;1.42;;
57593;SDS011;43423;46.510;6.686;2022-10-16T05:48:21;1.60;;;0.98;;
57593;SDS011;43423;46.510;6.686;2022-10-16T05:50:47;0.90;;;0.70;;
57593;SDS011;43423;46.510;6.686;2022-10-16T05:53:13;5.25;;;0.95;;
57593;SDS011;43423;46.510;6.686;2022-10-16T05:55:38;1.83;;;1.05;;
57593;SDS011;43423;46.510;6.686;2022-10-16T05:58:04;1.88;;;1.20;;
57593;SDS011;43423;46.510;6.686;2022-10-16T06:00:29;2.05;;;1.17;;
57593;SDS011;43423;46.510;6.686;2022-10-16T06:02:55;3.00;;;1.20;;
57593;SDS011;43423;46.510;6.686;2022-10-16T06:05:20;1.00;;;0.90;;
57593;SDS011;43423;46.510;6.686;2022-10-16T06:07:46;1.13;;;0.80;;
57593;SDS011;43423;46.510;6.686;2022-10-16T06:10:11;4.35;;;1.00;;
57593;SDS011;43423;46.510;6.686;2022-10-16T06:12:37;2.33;;;1.40;;
57593;SDS011;43423;46.510;6.686;2022-10-16T06:15:02;1.33;;;1.10;;
57593;SDS011;43423;46.510;6.686;2022-10-16T06:17:28;3.80;;;1.05;;
57593;SDS011;43423;46.510;6.686;2022-10-16T06:19:53;1.55;;;1.10;;
57593;SDS011;43423;46.510;6.686;2022-10-16T06:22:19;1.60;;;1.50;;
57593;SDS011;43423;46.510;6.686;2022-10-16T06:24:45;1.92;;;1.00;;
57593;SDS011;43423;46.510;6.686;2022-10-16T06:27:11;2.08;;;1.10;;
57593;SDS011;43423;46.510;6.686;2022-10-16T06:29:37;1.33;;;0.98;;
57593;SDS011;43423;46.510;6.686;2022-10-16T06:32:02;2.83;;;0.90;;
57593;SDS011;43423;46.510;6.686;2022-10-16T06:34:28;3.53;;;1.63;;
57593;SDS011;43423;46.510;6.686;2022-10-16T06:36:53;2.33;;;0.90;;
57593;SDS011;43423;46.510;6.686;2022-10-16T06:39:19;1.27;;;0.95;;
57593;SDS011;43423;46.510;6.686;2022-10-16T06:41:44;1.20;;;1.00;;
57593;SDS011;43423;46.510;6.686;2022-10-16T06:44:10;1.00;;;0.90;;
57593;SDS011;43423;46.510;6.686;2022-10-16T06:46:35;1.65;;;1.40;;
57593;SDS011;43423;46.510;6.686;2022-10-16T06:49:01;3.55;;;1.35;;
57593;SDS011;43423;46.510;6.686;2022-10-16T06:51:26;2.08;;;1.00;;
57593;SDS011;43423;46.510;6.686;2022-10-16T06:53:53;3.67;;;1.23;;
57593;SDS011;43423;46.510;6.686;2022-10-16T06:56:20;1.98;;;1.17;;
57593;SDS011;43423;46.510;6.686;2022-10-16T06:58:47;3.35;;;1.30;;
57593;SDS011;43423;46.510;6.686;2022-10-16T07:01:14;1.10;;;0.98;;
57593;SDS011;43423;46.510;6.686;2022-10-16T07:03:41;1.52;;;1.00;;
57593;SDS011;43423;46.510;6.686;2022-10-16T07:06:09;6.15;;;1.10;;
57593;SDS011;43423;46.510;6.686;2022-10-16T07:08:37;4.57;;;1.20;;
57593;SDS011;43423;46.510;6.686;2022-10-16T07:11:14;1.20;;;1.10;;
57593;SDS011;43423;46.510;6.686;2022-10-16T07:13:42;0.95;;;0.88;;
57593;SDS011;43423;46.510;6.686;2022-10-16T07:16:18;1.23;;;1.00;;
57593;SDS011;43423;46.510;6.686;2022-10-16T07:18:46;3.70;;;1.00;;
57593;SDS011;43423;46.510;6.686;2022-10-16T07:21:20;7.35;;;1.20;;
57593;SDS011;43423;46.510;6.686;2022-10-16T07:23:53;1.30;;;0.90;;
57593;SDS011;43423;46.510;6.686;2022-10-16T07:26:20;1.00;;;0.85;;
57593;SDS011;43423;46.510;6.686;2022-10-16T07:28:46;3.80;;;1.10;;
57593;SDS011;43423;46.510;6.686;2022-10-16T07:31:12;2.05;;;1.05;;
57593;SDS011;43423;46.510;6.686;2022-10-16T07:33:41;2.83;;;1.02;;
57593;SDS011;43423;46.510;6.686;2022-10-16T07:36:09;2.95;;;1.17;;
57593;SDS011;43423;46.510;6.686;2022-10-16T07:38:35;5.05;;;1.10;;
57593;SDS011;43423;46.510;6.686;2022-10-16T07:41:05;1.67;;;0.93;;
57593;SDS011;43423;46.510;6.686;2022-10-16T07:43:32;1.35;;;1.05;;
57593;SDS011;43423;46.510;6.686;2022-10-16T07:45:58;1.50;;;1.13;;
57593;SDS011;43423;46.510;6.686;2022-10-16T07:48:26;0.90;;;0.75;;
57593;SDS011;43423;46.510;6.686;2022-10-16T07:50:56;1.45;;;0.90;;
57593;SDS011;43423;46.510;6.686;2022-10-16T07:53:25;0.95;;;0.63;;
57593;SDS011;43423;46.510;6.686;2022-10-16T07:55:51;2.00;;;1.38;;
57593;SDS011;43423;46.510;6.686;2022-10-16T07:58:17;2.38;;;1.00;;
57593;SDS011;43423;46.510;6.686;2022-10-16T08:00:42;1.40;;;1.13;;
57593;SDS011;43423;46.510;6.686;2022-10-16T08:03:08;1.83;;;0.88;;
57593;SDS011;43423;46.510;6.686;2022-10-16T08:05:34;3.92;;;0.95;;
57593;SDS011;43423;46.510;6.686;2022-10-16T08:08:00;1.13;;;0.82;;
57593;SDS011;43423;46.510;6.686;2022-10-16T08:10:27;3.50;;;0.80;;
57593;SDS011;43423;46.510;6.686;2022-10-16T08:12:54;1.50;;;1.05;;
57593;SDS011;43423;46.510;6.686;2022-10-16T08:15:20;3.35;;;0.85;;
57593;SDS011;43423;46.510;6.686;2022-10-16T08:18:07;0.90;;;0.90;;
57593;SDS011;43423;46.510;6.686;2022-10-16T08:20:32;1.52;;;0.88;;
57593;SDS011;43423;46.510;6.686;2022-10-16T08:22:58;1.15;;;1.00;;
57593;SDS011;43423;46.510;6.686;2022-10-16T08:25:28;1.83;;;0.90;;
57593;SDS011;43423;46.510;6.686;2022-10-16T08:27:54;2.00;;;1.02;;
57593;SDS011;43423;46.510;6.686;2022-10-16T08:30:20;2.72;;;1.13;;
57593;SDS011;43423;46.510;6.686;2022-10-16T08:32:47;1.90;;;1.17;;
57593;SDS011;43423;46.510;6.686;2022-10-16T08:35:13;3.38;;;1.10;;
57593;SDS011;43423;46.510;6.686;2022-10-16T08:37:39;5.32;;;1.95;;
57593;SDS011;43423;46.510;6.686;2022-10-16T08:40:06;2.95;;;1.67;;
57593;SDS011;43423;46.510;6.686;2022-10-16T08:42:47;4.65;;;1.23;;
57593;SDS011;43423;46.510;6.686;2022-10-16T08:45:43;1.10;;;0.93;;
57593;SDS011;43423;46.510;6.686;2022-10-16T08:50:51;1.35;;;1.10;;
57593;SDS011;43423;46.510;6.686;2022-10-16T08:53:28;3.72;;;1.00;;
57593;SDS011;43423;46.510;6.686;2022-10-16T08:55:58;1.00;;;0.90;;
57593;SDS011;43423;46.510;6.686;2022-10-16T08:58:28;1.50;;;1.20;;
57593;SDS011;43423;46.510;6.686;2022-10-16T09:01:01;1.58;;;1.08;;
57593;SDS011;43423;46.510;6.686;2022-10-16T09:06:12;3.58;;;1.13;;
57593;SDS011;43423;46.510;6.686;2022-10-16T09:14:23;1.92;;;1.20;;
57593;SDS011;43423;46.510;6.686;2022-10-16T09:23:13;1.38;;;1.17;;
57593;SDS011;43423;46.510;6.686;2022-10-16T09:25:42;2.78;;;1.10;;
57593;SDS011;43423;46.510;6.686;2022-10-16T09:28:10;2.95;;;1.13;;
57593;SDS011;43423;46.510;6.686;2022-10-16T09:30:36;1.23;;;1.13;;
57593;SDS011;43423;46.510;6.686;2022-10-16T09:33:03;3.28;;;1.10;;
57593;SDS011;43423;46.510;6.686;2022-10-16T09:35:35;1.13;;;1.00;;
57593;SDS011;43423;46.510;6.686;2022-10-16T09:38:03;1.83;;;0.95;;
57593;SDS011;43423;46.510;6.686;2022-10-16T09:40:37;1.52;;;1.02;;
57593;SDS011;43423;46.510;6.686;2022-10-16T09:43:23;1.02;;;0.95;;
57593;SDS011;43423;46.510;6.686;2022-10-16T09:49:03;0.93;;;0.85;;
57593;SDS011;43423;46.510;6.686;2022-10-16T09:51:43;2.30;;;0.90;;
57593;SDS011;43423;46.510;6.686;2022-10-16T09:56:34;1.33;;;1.05;;
57593;SDS011;43423;46.510;6.686;2022-10-16T09:59:03;1.70;;;0.98;;
57593;SDS011;43423;46.510;6.686;2022-10-16T10:01:48;3.67;;;1.00;;
57593;SDS011;43423;46.510;6.686;2022-10-16T10:04:18;1.20;;;1.10;;
57593;SDS011;43423;46.510;6.686;2022-10-16T10:06:52;2.17;;;1.50;;
57593;SDS011;43423;46.510;6.686;2022-10-16T10:11:52;2.38;;;1.55;;
57593;SDS011;43423;46.510;6.686;2022-10-16T10:14:23;1.65;;;1.10;;
57593;SDS011;43423;46.510;6.686;2022-10-16T10:16:50;1.40;;;1.20;;
57593;SDS011;43423;46.510;6.686;2022-10-16T10:19:18;4.10;;;1.20;;
57593;SDS011;43423;46.510;6.686;2022-10-16T10:21:48;1.27;;;1.10;;
57593;SDS011;43423;46.510;6.686;2022-10-16T10:24:16;1.48;;;1.10;;
57593;SDS011;43423;46.510;6.686;2022-10-16T10:35:13;3.05;;;1.30;;
57593;SDS011;43423;46.510;6.686;2022-10-16T10:37:55;1.40;;;1.17;;
57593;SDS011;43423;46.510;6.686;2022-10-16T10:40:49;2.38;;;1.20;;
57593;SDS011;43423;46.510;6.686;2022-10-16T10:46:03;1.42;;;1.27;;
57593;SDS011;43423;46.510;6.686;2022-10-16T10:48:44;1.40;;;1.30;;
57593;SDS011;43423;46.510;6.686;2022-10-16T10:51:40;3.15;;;1.20;;
57593;SDS011;43423;46.510;6.686;2022-10-16T10:54:22;1.30;;;1.20;;
57593;SDS011;43423;46.510;6.686;2022-10-16T10:59:55;1.30;;;1.10;;
57593;SDS011;43423;46.510;6.686;2022-10-16T11:05:21;1.27;;;1.17;;
57593;SDS011;43423;46.510;6.686;2022-10-16T11:08:11;4.35;;;1.42;;
57593;SDS011;43423;46.510;6.686;2022-10-16T11:10:44;1.38;;;1.10;;
57593;SDS011;43423;46.510;6.686;2022-10-16T11:18:38;4.93;;;1.20;;
57593;SDS011;43423;46.510;6.686;2022-10-16T11:21:17;3.40;;;1.23;;
57593;SDS011;43423;46.510;6.686;2022-10-16T11:23:49;2.45;;;1.10;;
57593;SDS011;43423;46.510;6.686;2022-10-16T11:26:23;4.53;;;1.20;;
57593;SDS011;43423;46.510;6.686;2022-10-16T11:28:54;3.00;;;1.13;;
57593;SDS011;43423;46.510;6.686;2022-10-16T11:31:40;2.85;;;0.90;;
57593;SDS011;43423;46.510;6.686;2022-10-16T11:34:31;1.75;;;1.17;;
57593;SDS011;43423;46.510;6.686;2022-10-16T11:37:10;3.30;;;1.20;;
57593;SDS011;43423;46.510;6.686;2022-10-16T11:39:42;4.50;;;1.25;;
57593;SDS011;43423;46.510;6.686;2022-10-16T11:50:20;2.65;;;1.20;;
57593;SDS011;43423;46.510;6.686;2022-10-16T11:56:01;2.15;;;1.20;;
57593;SDS011;43423;46.510;6.686;2022-10-16T11:58:50;2.05;;;1.10;;
57593;SDS011;43423;46.510;6.686;2022-10-16T12:01:27;2.15;;;1.45;;
57593;SDS011;43423;46.510;6.686;2022-10-16T12:06:44;2.67;;;1.27;;
57593;SDS011;43423;46.510;6.686;2022-10-16T12:09:25;3.47;;;1.85;;
57593;SDS011;43423;46.510;6.686;2022-10-16T12:11:52;2.67;;;1.63;;
57593;SDS011;43423;46.510;6.686;2022-10-16T12:14:20;5.75;;;1.75;;
57593;SDS011;43423;46.510;6.686;2022-10-16T12:17:23;2.37;;;1.30;;
57593;SDS011;43423;46.510;6.686;2022-10-16T12:19:57;1.95;;;1.35;;
57593;SDS011;43423;46.510;6.686;2022-10-16T12:22:28;3.42;;;1.30;;
57593;SDS011;43423;46.510;6.686;2022-10-16T12:24:55;3.65;;;1.40;;
57593;SDS011;43423;46.510;6.686;2022-10-16T12:27:31;2.03;;;1.42;;
57593;SDS011;43423;46.510;6.686;2022-10-16T12:30:01;1.92;;;1.35;;
57593;SDS011;43423;46.510;6.686;2022-10-16T12:32:37;1.45;;;1.30;;
57593;SDS011;43423;46.510;6.686;2022-10-16T12:35:05;5.93;;;1.60;;
57593;SDS011;43423;46.510;6.686;2022-10-16T12:37:41;3.70;;;1.73;;
57593;SDS011;43423;46.510;6.686;2022-10-16T12:40:26;3.10;;;1.58;;
57593;SDS011;43423;46.510;6.686;2022-10-16T12:42:55;1.90;;;1.35;;
57593;SDS011;43423;46.510;6.686;2022-10-16T12:45:30;4.90;;;1.80;;
57593;SDS011;43423;46.510;6.686;2022-10-16T12:47:58;1.83;;;1.48;;
57593;SDS011;43423;46.510;6.686;2022-10-16T12:50:33;2.85;;;1.52;;
57593;SDS011;43423;46.510;6.686;2022-10-16T12:53:02;2.10;;;1.50;;
57593;SDS011;43423;46.510;6.686;2022-10-16T12:55:40;2.88;;;1.45;;
57593;SDS011;43423;46.510;6.686;2022-10-16T13:00:54;1.70;;;1.60;;
57593;SDS011;43423;46.510;6.686;2022-10-16T13:09:02;1.85;;;1.60;;
57593;SDS011;43423;46.510;6.686;2022-10-16T13:11:54;2.75;;;1.50;;
57593;SDS011;43423;46.510;6.686;2022-10-16T13:22:58;5.10;;;1.77;;
57593;SDS011;43423;46.510;6.686;2022-10-16T13:25:45;1.60;;;1.50;;
57593;SDS011;43423;46.510;6.686;2022-10-16T13:28:22;1.73;;;1.40;;
57593;SDS011;43423;46.510;6.686;2022-10-16T13:30:54;2.53;;;1.40;;
57593;SDS011;43423;46.510;6.686;2022-10-16T13:35:55;2.90;;;1.73;;
57593;SDS011;43423;46.510;6.686;2022-10-16T13:38:22;2.10;;;1.83;;
57593;SDS011;43423;46.510;6.686;2022-10-16T13:43:28;2.72;;;1.50;;
57593;SDS011;43423;46.510;6.686;2022-10-16T13:46:01;3.95;;;1.42;;
57593;SDS011;43423;46.510;6.686;2022-10-16T13:48:27;3.05;;;1.73;;
57593;SDS011;43423;46.510;6.686;2022-10-16T13:53:26;2.03;;;1.40;;
57593;SDS011;43423;46.510;6.686;2022-10-16T13:55:52;2.83;;;1.50;;
57593;SDS011;43423;46.510;6.686;2022-10-16T13:58:18;6.70;;;1.83;;
57593;SDS011;43423;46.510;6.686;2022-10-16T14:00:53;2.40;;;1.77;;
57593;SDS011;43423;46.510;6.686;2022-10-16T14:03:20;4.25;;;1.92;;
57593;SDS011;43423;46.510;6.686;2022-10-16T14:05:47;5.85;;;1.90;;
57593;SDS011;43423;46.510;6.686;2022-10-16T14:08:34;1.98;;;1.48;;
57593;SDS011;43423;46.510;6.686;2022-10-16T14:11:00;2.75;;;1.65;;
57593;SDS011;43423;46.510;6.686;2022-10-16T14:13:31;4.45;;;1.55;;
57593;SDS011;43423;46.510;6.686;2022-10-16T14:16:02;1.98;;;1.75;;
57593;SDS011;43423;46.510;6.686;2022-10-16T14:18:32;2.17;;;1.50;;
57593;SDS011;43423;46.510;6.686;2022-10-16T14:21:02;2.30;;;1.42;;
57593;SDS011;43423;46.510;6.686;2022-10-16T14:23:30;3.88;;;1.70;;
57593;SDS011;43423;46.510;6.686;2022-10-16T14:26:12;3.13;;;1.77;;
57593;SDS011;43423;46.510;6.686;2022-10-16T14:28:39;3.50;;;1.48;;
57593;SDS011;43423;46.510;6.686;2022-10-16T14:31:23;2.88;;;1.60;;
57593;SDS011;43423;46.510;6.686;2022-10-16T14:33:55;3.03;;;1.48;;
57593;SDS011;43423;46.510;6.686;2022-10-16T14:36:21;4.53;;;1.58;;
57593;SDS011;43423;46.510;6.686;2022-10-16T14:38:48;5.18;;;1.30;;
57593;SDS011;43423;46.510;6.686;2022-10-16T14:41:22;4.05;;;1.92;;
57593;SDS011;43423;46.510;6.686;2022-10-16T14:43:54;3.28;;;1.80;;
57593;SDS011;43423;46.510;6.686;2022-10-16T14:46:27;2.25;;;1.52;;
57593;SDS011;43423;46.510;6.686;2022-10-16T14:49:00;2.75;;;1.58;;
57593;SDS011;43423;46.510;6.686;2022-10-16T14:51:28;2.78;;;1.95;;
57593;SDS011;43423;46.510;6.686;2022-10-16T14:53:54;4.38;;;1.92;;
57593;SDS011;43423;46.510;6.686;2022-10-16T14:56:21;3.97;;;1.50;;
57593;SDS011;43423;46.510;6.686;2022-10-16T14:58:52;3.45;;;2.25;;
57593;SDS011;43423;46.510;6.686;2022-10-16T15:01:18;2.10;;;1.90;;
57593;SDS011;43423;46.510;6.686;2022-10-16T15:03:44;2.70;;;1.80;;
57593;SDS011;43423;46.510;6.686;2022-10-16T15:06:11;2.97;;;1.58;;
57593;SDS011;43423;46.510;6.686;2022-10-16T15:08:37;3.67;;;2.17;;
57593;SDS011;43423;46.510;6.686;2022-10-16T15:11:03;3.05;;;1.45;;
57593;SDS011;43423;46.510;6.686;2022-10-16T15:13:29;5.15;;;2.25;;
57593;SDS011;43423;46.510;6.686;2022-10-16T15:15:55;1.42;;;1.27;;
57593;SDS011;43423;46.510;6.686;2022-10-16T15:18:20;5.63;;;2.03;;
57593;SDS011;43423;46.510;6.686;2022-10-16T15:20:50;2.95;;;1.80;;
57593;SDS011;43423;46.510;6.686;2022-10-16T15:23:16;4.07;;;1.65;;
57593;SDS011;43423;46.510;6.686;2022-10-16T15:25:44;3.67;;;1.98;;
57593;SDS011;43423;46.510;6.686;2022-10-16T15:28:20;2.90;;;2.15;;
57593;SDS011;43423;46.510;6.686;2022-10-16T15:30:49;2.00;;;1.80;;
57593;SDS011;43423;46.510;6.686;2022-10-16T15:33:17;4.95;;;2.38;;
57593;SDS011;43423;46.510;6.686;2022-10-16T15:35:47;2.63;;;1.70;;
57593;SDS011;43423;46.510;6.686;2022-10-16T15:38:14;2.40;;;1.88;;
57593;SDS011;43423;46.510;6.686;2022-10-16T15:40:41;2.53;;;2.05;;
57593;SDS011;43423;46.510;6.686;2022-10-16T15:43:06;2.95;;;2.00;;
57593;SDS011;43423;46.510;6.686;2022-10-16T15:45:32;1.80;;;1.70;;
57593;SDS011;43423;46.510;6.686;2022-10-16T15:47:58;3.65;;;1.63;;
57593;SDS011;43423;46.510;6.686;2022-10-16T15:50:23;2.67;;;2.10;;
57593;SDS011;43423;46.510;6.686;2022-10-16T15:52:49;3.00;;;1.80;;
57593;SDS011;43423;46.510;6.686;2022-10-16T15:55:15;4.35;;;1.75;;
57593;SDS011;43423;46.510;6.686;2022-10-16T15:57:42;2.45;;;1.65;;
57593;SDS011;43423;46.510;6.686;2022-10-16T16:00:09;2.90;;;1.50;;
57593;SDS011;43423;46.510;6.686;2022-10-16T16:02:43;3.47;;;1.88;;
57593;SDS011;43423;46.510;6.686;2022-10-16T16:05:14;4.88;;;2.25;;
57593;SDS011;43423;46.510;6.686;2022-10-16T16:07:40;2.40;;;1.52;;
57593;SDS011;43423;46.510;6.686;2022-10-16T16:10:07;1.83;;;1.60;;
57593;SDS011;43423;46.510;6.686;2022-10-16T16:12:33;4.38;;;1.98;;
57593;SDS011;43423;46.510;6.686;2022-10-16T16:14:59;3.00;;;2.03;;
57593;SDS011;43423;46.510;6.686;2022-10-16T16:17:24;3.35;;;2.05;;
57593;SDS011;43423;46.510;6.686;2022-10-16T16:19:50;2.70;;;2.10;;
57593;SDS011;43423;46.510;6.686;2022-10-16T16:22:16;3.08;;;2.22;;
57593;SDS011;43423;46.510;6.686;2022-10-16T16:24:42;3.85;;;2.17;;
57593;SDS011;43423;46.510;6.686;2022-10-16T16:27:07;3.80;;;2.60;;
57593;SDS011;43423;46.510;6.686;2022-10-16T16:29:33;10.80;;;3.47;;
57593;SDS011;43423;46.510;6.686;2022-10-16T16:31:59;8.57;;;3.72;;
57593;SDS011;43423;46.510;6.686;2022-10-16T16:34:28;6.03;;;3.38;;
57593;SDS011;43423;46.510;6.686;2022-10-16T16:36:54;6.45;;;3.53;;
57593;SDS011;43423;46.510;6.686;2022-10-16T16:39:21;5.03;;;2.80;;